首页
METAR-TAF:

METAR-TAF

机场 :

三亚, 中华人民共和国

三亚凤凰国际机场

纬度: 18-18N, 经度: 109-24E, 海拔: 27米

当前天气观测

该预报发布于11分钟前的00:00 UTC
风速4节,风向东转东北
温度 24°C
湿度 78%
气压 1017 hPa
能见度10公里或以上
多云层高于5000英尺

METAR: ZJSY 250000Z 07002MPS 9999 BKN050 24/20 Q1017 NOSIG

时间: 08:11 (00:11 UTC)

预报

该预报发布于5小时和5分钟前的19:06 UTC
预报有效从25日的 00点(UTC)到 25日的 24点(UTC)
风速8节,风向东转东南
能见度10公里或以上
少量云层高于1600英尺
散云层高于5000英尺

TAF: ZJSY 241906Z 2500/2524 12004MPS 9999 FEW016 SCT050 TX28/2506Z TN22/2521Z

超过4000个机场的气象观测和天气预报(METAR&TAF报告)。

可查询的气象台以黄色和红色小点在地图上表示。

将鼠标移到小点上方,可查看气象台名称。

然后点击查看天气观测和预报。

如需切换地图:点击带黑十字的绿色按钮放大地图;点击带横线的绿色按钮缩小地图;或者点击绿色箭头查看邻近地区的地图。


METAR-TAF: